sensor_id;sensor_type;location;lat;lon;timestamp;temperature;humidity
66343;DHT22;53144;51.524;5.080;2022-10-16T00:01:10;13.00;90.35
66343;DHT22;53144;51.524;5.080;2022-10-16T00:03:36;12.94;90.58
66343;DHT22;53144;51.524;5.080;2022-10-16T00:06:02;12.93;90.65
66343;DHT22;53144;51.524;5.080;2022-10-16T00:08:28;12.94;90.66
66343;DHT22;53144;51.524;5.080;2022-10-16T00:10:58;12.87;90.89
66343;DHT22;53144;51.524;5.080;2022-10-16T00:13:23;12.91;90.92
66343;DHT22;53144;51.524;5.080;2022-10-16T00:15:49;12.83;90.98
66343;DHT22;53144;51.524;5.080;2022-10-16T00:18:14;12.80;91.10
66343;DHT22;53144;51.524;5.080;2022-10-16T00:20:39;12.82;91.25
66343;DHT22;53144;51.524;5.080;2022-10-16T00:23:04;12.84;91.08
66343;DHT22;53144;51.524;5.080;2022-10-16T00:25:30;12.83;91.08
66343;DHT22;53144;51.524;5.080;2022-10-16T00:27:58;12.83;91.11
66343;DHT22;53144;51.524;5.080;2022-10-16T00:30:23;12.82;91.20
66343;DHT22;53144;51.524;5.080;2022-10-16T00:32:48;12.80;91.18
66343;DHT22;53144;51.524;5.080;2022-10-16T00:35:14;12.82;91.23
66343;DHT22;53144;51.524;5.080;2022-10-16T00:37:39;12.86;91.21
66343;DHT22;53144;51.524;5.080;2022-10-16T00:40:04;12.84;91.29
66343;DHT22;53144;51.524;5.080;2022-10-16T00:42:30;12.83;91.21
66343;DHT22;53144;51.524;5.080;2022-10-16T00:44:56;12.89;91.22
66343;DHT22;53144;51.524;5.080;2022-10-16T00:50:00;12.96;90.83
66343;DHT22;53144;51.524;5.080;2022-10-16T00:52:27;12.96;90.96
66343;DHT22;53144;51.524;5.080;2022-10-16T00:54:53;13.00;90.73
66343;DHT22;53144;51.524;5.080;2022-10-16T00:57:18;12.96;90.85
66343;DHT22;53144;51.524;5.080;2022-10-16T00:59:44;12.90;91.02
66343;DHT22;53144;51.524;5.080;2022-10-16T01:02:12;12.97;90.74
66343;DHT22;53144;51.524;5.080;2022-10-16T01:04:39;12.94;90.93
66343;DHT22;53144;51.524;5.080;2022-10-16T01:12:13;12.87;91.32
66343;DHT22;53144;51.524;5.080;2022-10-16T01:17:06;12.96;91.16
66343;DHT22;53144;51.524;5.080;2022-10-16T01:19:44;12.99;91.07
66343;DHT22;53144;51.524;5.080;2022-10-16T01:22:15;12.97;91.04
66343;DHT22;53144;51.524;5.080;2022-10-16T01:24:43;13.00;91.01
66343;DHT22;53144;51.524;5.080;2022-10-16T01:29:54;13.03;91.00
66343;DHT22;53144;51.524;5.080;2022-10-16T01:34:50;12.91;91.29
66343;DHT22;53144;51.524;5.080;2022-10-16T01:37:20;12.96;91.25
66343;DHT22;53144;51.524;5.080;2022-10-16T01:39:47;12.87;91.44
66343;DHT22;53144;51.524;5.080;2022-10-16T01:42:17;12.87;91.54
66343;DHT22;53144;51.524;5.080;2022-10-16T01:44:44;12.83;91.68
66343;DHT22;53144;51.524;5.080;2022-10-16T01:47:11;12.87;91.60
66343;DHT22;53144;51.524;5.080;2022-10-16T01:49:39;12.91;91.53
66343;DHT22;53144;51.524;5.080;2022-10-16T01:52:07;12.93;91.50
66343;DHT22;53144;51.524;5.080;2022-10-16T01:54:34;12.91;91.52
66343;DHT22;53144;51.524;5.080;2022-10-16T01:57:00;12.93;91.49
66343;DHT22;53144;51.524;5.080;2022-10-16T01:59:26;12.87;91.62
66343;DHT22;53144;51.524;5.080;2022-10-16T02:01:56;12.94;91.47
66343;DHT22;53144;51.524;5.080;2022-10-16T02:04:24;13.06;91.30
66343;DHT22;53144;51.524;5.080;2022-10-16T02:06:52;13.01;91.26
66343;DHT22;53144;51.524;5.080;2022-10-16T02:09:17;12.94;91.44
66343;DHT22;53144;51.524;5.080;2022-10-16T02:11:43;12.99;91.30
66343;DHT22;53144;51.524;5.080;2022-10-16T02:14:08;13.03;91.04
66343;DHT22;53144;51.524;5.080;2022-10-16T02:16:35;12.99;91.20
66343;DHT22;53144;51.524;5.080;2022-10-16T02:19:01;12.96;91.37
66343;DHT22;53144;51.524;5.080;2022-10-16T02:21:28;12.91;91.34
66343;DHT22;53144;51.524;5.080;2022-10-16T02:24:00;12.96;91.31
66343;DHT22;53144;51.524;5.080;2022-10-16T02:26:27;12.94;91.27
66343;DHT22;53144;51.524;5.080;2022-10-16T02:28:55;12.97;91.15
66343;DHT22;53144;51.524;5.080;2022-10-16T02:31:23;12.87;91.36
66343;DHT22;53144;51.524;5.080;2022-10-16T02:33:51;12.87;91.67
66343;DHT22;53144;51.524;5.080;2022-10-16T02:36:17;12.89;91.37
66343;DHT22;53144;51.524;5.080;2022-10-16T02:38:43;12.87;91.35
66343;DHT22;53144;51.524;5.080;2022-10-16T02:41:09;12.84;91.45
66343;DHT22;53144;51.524;5.080;2022-10-16T02:43:34;12.83;91.35
66343;DHT22;53144;51.524;5.080;2022-10-16T02:45:59;12.84;91.24
66343;DHT22;53144;51.524;5.080;2022-10-16T02:48:25;12.80;91.48
66343;DHT22;53144;51.524;5.080;2022-10-16T02:50:50;12.83;91.34
66343;DHT22;53144;51.524;5.080;2022-10-16T02:53:16;12.80;91.31
66343;DHT22;53144;51.524;5.080;2022-10-16T02:55:41;12.80;91.31
66343;DHT22;53144;51.524;5.080;2022-10-16T02:58:07;12.80;91.49
66343;DHT22;53144;51.524;5.080;2022-10-16T03:00:32;12.75;91.61
66343;DHT22;53144;51.524;5.080;2022-10-16T03:02:57;12.75;91.50
66343;DHT22;53144;51.524;5.080;2022-10-16T03:05:22;12.70;91.80
66343;DHT22;53144;51.524;5.080;2022-10-16T03:07:48;12.69;91.81
66343;DHT22;53144;51.524;5.080;2022-10-16T03:10:13;12.69;91.83
66343;DHT22;53144;51.524;5.080;2022-10-16T03:12:38;12.64;91.82
66343;DHT22;53144;51.524;5.080;2022-10-16T03:15:03;12.66;91.79
66343;DHT22;53144;51.524;5.080;2022-10-16T03:17:29;12.63;92.01
66343;DHT22;53144;51.524;5.080;2022-10-16T03:19:54;12.69;92.02
66343;DHT22;53144;51.524;5.080;2022-10-16T03:22:19;12.69;92.04
66343;DHT22;53144;51.524;5.080;2022-10-16T03:24:45;12.70;92.05
66343;DHT22;53144;51.524;5.080;2022-10-16T03:27:10;12.72;92.11
66343;DHT22;53144;51.524;5.080;2022-10-16T03:29:35;12.66;92.04
66343;DHT22;53144;51.524;5.080;2022-10-16T03:32:00;12.66;92.10
66343;DHT22;53144;51.524;5.080;2022-10-16T03:34:26;12.64;92.16
66343;DHT22;53144;51.524;5.080;2022-10-16T03:36:51;12.64;92.20
66343;DHT22;53144;51.524;5.080;2022-10-16T03:39:17;12.67;92.11
66343;DHT22;53144;51.524;5.080;2022-10-16T03:41:42;12.69;92.13
66343;DHT22;53144;51.524;5.080;2022-10-16T03:44:08;12.67;92.12
66343;DHT22;53144;51.524;5.080;2022-10-16T03:46:33;12.70;92.25
66343;DHT22;53144;51.524;5.080;2022-10-16T03:48:58;12.66;92.28
66343;DHT22;53144;51.524;5.080;2022-10-16T03:51:23;12.69;92.33
66343;DHT22;53144;51.524;5.080;2022-10-16T03:53:49;12.67;92.44
66343;DHT22;53144;51.524;5.080;2022-10-16T03:56:14;12.69;92.45
66343;DHT22;53144;51.524;5.080;2022-10-16T03:58:39;12.70;92.30
66343;DHT22;53144;51.524;5.080;2022-10-16T04:01:05;12.72;92.20
66343;DHT22;53144;51.524;5.080;2022-10-16T04:03:30;12.72;92.29
66343;DHT22;53144;51.524;5.080;2022-10-16T04:05:55;12.64;92.39
66343;DHT22;53144;51.524;5.080;2022-10-16T04:08:21;12.64;92.49
66343;DHT22;53144;51.524;5.080;2022-10-16T04:10:46;12.66;92.45
66343;DHT22;53144;51.524;5.080;2022-10-16T04:13:12;12.64;92.57
66343;DHT22;53144;51.524;5.080;2022-10-16T04:15:37;12.69;92.59
66343;DHT22;53144;51.524;5.080;2022-10-16T04:18:04;12.56;92.67
66343;DHT22;53144;51.524;5.080;2022-10-16T04:20:29;12.57;92.79
66343;DHT22;53144;51.524;5.080;2022-10-16T04:22:55;12.57;92.92
66343;DHT22;53144;51.524;5.080;2022-10-16T04:25:20;12.60;92.89
66343;DHT22;53144;51.524;5.080;2022-10-16T04:27:45;12.59;92.84
66343;DHT22;53144;51.524;5.080;2022-10-16T04:30:11;12.59;92.92
66343;DHT22;53144;51.524;5.080;2022-10-16T04:32:36;12.57;92.82
66343;DHT22;53144;51.524;5.080;2022-10-16T04:35:01;12.48;93.04
66343;DHT22;53144;51.524;5.080;2022-10-16T04:37:28;12.48;93.24
66343;DHT22;53144;51.524;5.080;2022-10-16T04:39:53;12.48;93.29
66343;DHT22;53144;51.524;5.080;2022-10-16T04:42:19;12.41;93.50
66343;DHT22;53144;51.524;5.080;2022-10-16T04:44:44;12.36;93.64
66343;DHT22;53144;51.524;5.080;2022-10-16T04:47:10;12.45;93.59
66343;DHT22;53144;51.524;5.080;2022-10-16T04:49:35;12.39;93.67
66343;DHT22;53144;51.524;5.080;2022-10-16T04:52:00;12.46;93.51
66343;DHT22;53144;51.524;5.080;2022-10-16T04:54:26;12.46;93.52
66343;DHT22;53144;51.524;5.080;2022-10-16T04:56:51;12.43;93.68
66343;DHT22;53144;51.524;5.080;2022-10-16T04:59:17;12.52;93.67
66343;DHT22;53144;51.524;5.080;2022-10-16T05:01:43;12.49;93.38
66343;DHT22;53144;51.524;5.080;2022-10-16T05:04:08;12.53;93.35
66343;DHT22;53144;51.524;5.080;2022-10-16T05:06:33;12.52;93.38
66343;DHT22;53144;51.524;5.080;2022-10-16T05:08:59;12.48;93.29
66343;DHT22;53144;51.524;5.080;2022-10-16T05:11:24;12.48;93.37
66343;DHT22;53144;51.524;5.080;2022-10-16T05:13:49;12.48;93.54
66343;DHT22;53144;51.524;5.080;2022-10-16T05:16:15;12.50;93.43
66343;DHT22;53144;51.524;5.080;2022-10-16T05:18:40;12.49;93.55
66343;DHT22;53144;51.524;5.080;2022-10-16T05:21:05;12.52;93.49
66343;DHT22;53144;51.524;5.080;2022-10-16T05:23:31;12.53;93.44
66343;DHT22;53144;51.524;5.080;2022-10-16T05:25:56;12.53;93.44
66343;DHT22;53144;51.524;5.080;2022-10-16T05:28:23;12.56;93.31
66343;DHT22;53144;51.524;5.080;2022-10-16T05:30:49;12.56;93.44
66343;DHT22;53144;51.524;5.080;2022-10-16T05:33:14;12.52;93.42
66343;DHT22;53144;51.524;5.080;2022-10-16T05:35:39;12.50;93.53
66343;DHT22;53144;51.524;5.080;2022-10-16T05:38:04;12.46;93.57
66343;DHT22;53144;51.524;5.080;2022-10-16T05:40:30;12.53;93.45
66343;DHT22;53144;51.524;5.080;2022-10-16T05:42:55;12.49;93.51
66343;DHT22;53144;51.524;5.080;2022-10-16T05:45:20;12.41;93.79
66343;DHT22;53144;51.524;5.080;2022-10-16T05:47:46;12.36;93.88
66343;DHT22;53144;51.524;5.080;2022-10-16T05:50:11;12.39;93.94
66343;DHT22;53144;51.524;5.080;2022-10-16T05:52:36;12.41;93.96
66343;DHT22;53144;51.524;5.080;2022-10-16T05:55:02;12.35;94.16
66343;DHT22;53144;51.524;5.080;2022-10-16T05:57:27;12.32;94.23
66343;DHT22;53144;51.524;5.080;2022-10-16T05:59:53;12.22;94.37
66343;DHT22;53144;51.524;5.080;2022-10-16T06:02:18;12.21;94.56
66343;DHT22;53144;51.524;5.080;2022-10-16T06:04:43;12.22;94.51
66343;DHT22;53144;51.524;5.080;2022-10-16T06:07:09;12.21;94.68
66343;DHT22;53144;51.524;5.080;2022-10-16T06:09:34;12.21;94.58
66343;DHT22;53144;51.524;5.080;2022-10-16T06:11:59;12.25;94.45
66343;DHT22;53144;51.524;5.080;2022-10-16T06:14:24;12.31;94.38
66343;DHT22;53144;51.524;5.080;2022-10-16T06:16:50;12.32;94.24
66343;DHT22;53144;51.524;5.080;2022-10-16T06:19:15;12.28;94.31
66343;DHT22;53144;51.524;5.080;2022-10-16T06:21:41;12.21;94.47
66343;DHT22;53144;51.524;5.080;2022-10-16T06:24:06;12.20;94.56
66343;DHT22;53144;51.524;5.080;2022-10-16T06:26:32;12.24;94.59
66343;DHT22;53144;51.524;5.080;2022-10-16T06:28:58;12.21;94.59
66343;DHT22;53144;51.524;5.080;2022-10-16T06:31:23;12.28;94.60
66343;DHT22;53144;51.524;5.080;2022-10-16T06:33:52;12.26;94.54
66343;DHT22;53144;51.524;5.080;2022-10-16T06:36:18;12.29;94.49
66343;DHT22;53144;51.524;5.080;2022-10-16T06:38:44;12.35;94.50
66343;DHT22;53144;51.524;5.080;2022-10-16T06:41:11;12.42;94.29
66343;DHT22;53144;51.524;5.080;2022-10-16T06:43:36;12.53;93.89
66343;DHT22;53144;51.524;5.080;2022-10-16T06:46:02;12.53;94.00
66343;DHT22;53144;51.524;5.080;2022-10-16T06:48:28;12.69;93.82
66343;DHT22;53144;51.524;5.080;2022-10-16T06:50:58;12.73;93.60
66343;DHT22;53144;51.524;5.080;2022-10-16T06:53:24;12.84;93.24
66343;DHT22;53144;51.524;5.080;2022-10-16T06:55:49;12.90;93.19
66343;DHT22;53144;51.524;5.080;2022-10-16T06:58:14;12.93;93.19
66343;DHT22;53144;51.524;5.080;2022-10-16T07:00:40;13.01;93.10
66343;DHT22;53144;51.524;5.080;2022-10-16T07:03:05;13.06;92.89
66343;DHT22;53144;51.524;5.080;2022-10-16T07:05:30;13.08;92.66
66343;DHT22;53144;51.524;5.080;2022-10-16T07:07:55;13.14;92.45
66343;DHT22;53144;51.524;5.080;2022-10-16T07:10:21;13.14;92.66
66343;DHT22;53144;51.524;5.080;2022-10-16T07:12:49;13.14;92.60
66343;DHT22;53144;51.524;5.080;2022-10-16T07:15:14;13.21;92.61
66343;DHT22;53144;51.524;5.080;2022-10-16T07:17:39;13.24;92.42
66343;DHT22;53144;51.524;5.080;2022-10-16T07:20:05;13.31;92.24
66343;DHT22;53144;51.524;5.080;2022-10-16T07:22:30;13.32;92.64
66343;DHT22;53144;51.524;5.080;2022-10-16T07:24:55;13.37;92.48
66343;DHT22;53144;51.524;5.080;2022-10-16T07:27:21;13.44;92.21
66343;DHT22;53144;51.524;5.080;2022-10-16T07:29:48;13.49;92.13
66343;DHT22;53144;51.524;5.080;2022-10-16T07:32:14;13.57;92.01
66343;DHT22;53144;51.524;5.080;2022-10-16T07:34:39;13.61;91.62
66343;DHT22;53144;51.524;5.080;2022-10-16T07:37:04;13.68;91.63
66343;DHT22;53144;51.524;5.080;2022-10-16T07:39:30;13.69;91.78
66343;DHT22;53144;51.524;5.080;2022-10-16T07:41:55;13.76;91.35
66343;DHT22;53144;51.524;5.080;2022-10-16T07:44:20;13.76;91.40
66343;DHT22;53144;51.524;5.080;2022-10-16T07:46:46;13.82;91.55
66343;DHT22;53144;51.524;5.080;2022-10-16T07:49:11;13.78;91.61
66343;DHT22;53144;51.524;5.080;2022-10-16T07:51:36;13.80;91.12
66343;DHT22;53144;51.524;5.080;2022-10-16T07:54:03;13.85;91.27
66343;DHT22;53144;51.524;5.080;2022-10-16T07:56:30;13.85;91.27
66343;DHT22;53144;51.524;5.080;2022-10-16T07:58:55;13.86;91.35
66343;DHT22;53144;51.524;5.080;2022-10-16T08:01:21;13.86;91.35
66343;DHT22;53144;51.524;5.080;2022-10-16T08:03:50;13.95;90.96
66343;DHT22;53144;51.524;5.080;2022-10-16T08:06:16;13.96;90.68
66343;DHT22;53144;51.524;5.080;2022-10-16T08:08:42;13.96;90.87
66343;DHT22;53144;51.524;5.080;2022-10-16T08:11:07;14.08;90.18
66343;DHT22;53144;51.524;5.080;2022-10-16T08:13:33;14.16;90.22
66343;DHT22;53144;51.524;5.080;2022-10-16T08:15:58;14.24;89.70
66343;DHT22;53144;51.524;5.080;2022-10-16T08:18:24;14.30;89.54
66343;DHT22;53144;51.524;5.080;2022-10-16T08:20:55;14.34;89.61
66343;DHT22;53144;51.524;5.080;2022-10-16T08:23:20;14.34;89.67
66343;DHT22;53144;51.524;5.080;2022-10-16T08:25:45;14.37;89.55
66343;DHT22;53144;51.524;5.080;2022-10-16T08:28:11;14.45;89.20
66343;DHT22;53144;51.524;5.080;2022-10-16T08:30:36;14.48;89.68
66343;DHT22;53144;51.524;5.080;2022-10-16T08:33:02;14.56;89.24
66343;DHT22;53144;51.524;5.080;2022-10-16T08:35:27;14.52;89.42
66343;DHT22;53144;51.524;5.080;2022-10-16T08:37:52;14.65;89.20
66343;DHT22;53144;51.524;5.080;2022-10-16T08:40:19;14.69;88.37
66343;DHT22;53144;51.524;5.080;2022-10-16T08:42:48;14.81;88.55
66343;DHT22;53144;51.524;5.080;2022-10-16T08:50:43;14.92;87.65
66343;DHT22;53144;51.524;5.080;2022-10-16T08:53:11;14.85;87.72
66343;DHT22;53144;51.524;5.080;2022-10-16T08:55:44;14.91;88.34
66343;DHT22;53144;51.524;5.080;2022-10-16T08:58:15;15.02;87.03
66343;DHT22;53144;51.524;5.080;2022-10-16T09:00:41;15.08;87.13
66343;DHT22;53144;51.524;5.080;2022-10-16T09:10:39;15.26;86.74
66343;DHT22;53144;51.524;5.080;2022-10-16T09:13:17;15.35;85.76
66343;DHT22;53144;51.524;5.080;2022-10-16T09:15:55;15.47;86.25
66343;DHT22;53144;51.524;5.080;2022-10-16T09:18:39;15.63;85.60
66343;DHT22;53144;51.524;5.080;2022-10-16T09:21:17;15.64;85.14
66343;DHT22;53144;51.524;5.080;2022-10-16T09:23:43;15.68;85.08
66343;DHT22;53144;51.524;5.080;2022-10-16T09:26:14;15.73;85.60
66343;DHT22;53144;51.524;5.080;2022-10-16T09:28:41;15.95;84.09
66343;DHT22;53144;51.524;5.080;2022-10-16T09:31:16;16.00;83.47
66343;DHT22;53144;51.524;5.080;2022-10-16T09:33:43;15.95;82.93
66343;DHT22;53144;51.524;5.080;2022-10-16T09:36:12;16.12;82.76
66343;DHT22;53144;51.524;5.080;2022-10-16T09:38:38;16.18;83.07
66343;DHT22;53144;51.524;5.080;2022-10-16T09:41:15;16.28;82.56
66343;DHT22;53144;51.524;5.080;2022-10-16T09:43:56;16.33;82.15
66343;DHT22;53144;51.524;5.080;2022-10-16T09:48:54;16.51;82.10
66343;DHT22;53144;51.524;5.080;2022-10-16T09:51:30;16.56;80.99
66343;DHT22;53144;51.524;5.080;2022-10-16T09:54:00;16.57;81.89
66343;DHT22;53144;51.524;5.080;2022-10-16T09:56:30;16.72;81.93
66343;DHT22;53144;51.524;5.080;2022-10-16T09:58:59;16.80;80.88
66343;DHT22;53144;51.524;5.080;2022-10-16T10:01:51;16.66;81.84
66343;DHT22;53144;51.524;5.080;2022-10-16T10:04:19;16.73;81.40
66343;DHT22;53144;51.524;5.080;2022-10-16T10:06:51;16.93;79.30
66343;DHT22;53144;51.524;5.080;2022-10-16T10:11:52;17.62;77.83
66343;DHT22;53144;51.524;5.080;2022-10-16T10:14:21;17.75;77.92
66343;DHT22;53144;51.524;5.080;2022-10-16T10:16:48;18.58;74.95
66343;DHT22;53144;51.524;5.080;2022-10-16T10:19:23;19.57;71.31
66343;DHT22;53144;51.524;5.080;2022-10-16T10:21:50;19.58;71.30
66343;DHT22;53144;51.524;5.080;2022-10-16T10:24:18;20.69;67.43
66343;DHT22;53144;51.524;5.080;2022-10-16T10:27:05;21.24;64.84
66343;DHT22;53144;51.524;5.080;2022-10-16T10:35:00;20.08;67.75
66343;DHT22;53144;51.524;5.080;2022-10-16T10:40:24;19.03;70.43
66343;DHT22;53144;51.524;5.080;2022-10-16T10:45:48;19.71;68.00
66343;DHT22;53144;51.524;5.080;2022-10-16T10:51:04;19.43;69.44
66343;DHT22;53144;51.524;5.080;2022-10-16T10:53:36;18.45;71.21
66343;DHT22;53144;51.524;5.080;2022-10-16T11:01:44;17.55;73.22
66343;DHT22;53144;51.524;5.080;2022-10-16T11:04:22;17.48;73.17
66343;DHT22;53144;51.524;5.080;2022-10-16T11:06:52;17.30;74.12
66343;DHT22;53144;51.524;5.080;2022-10-16T11:09:24;17.08;75.78
66343;DHT22;53144;51.524;5.080;2022-10-16T11:11:56;19.08;69.64
66343;DHT22;53144;51.524;5.080;2022-10-16T11:14:45;18.89;69.64
66343;DHT22;53144;51.524;5.080;2022-10-16T11:17:14;19.64;67.74
66343;DHT22;53144;51.524;5.080;2022-10-16T11:19:49;20.12;67.02
66343;DHT22;53144;51.524;5.080;2022-10-16T11:22:38;20.26;65.26
66343;DHT22;53144;51.524;5.080;2022-10-16T11:27:43;18.73;67.10
66343;DHT22;53144;51.524;5.080;2022-10-16T11:30:22;19.87;66.85
66343;DHT22;53144;51.524;5.080;2022-10-16T11:35:29;19.88;64.89
66343;DHT22;53144;51.524;5.080;2022-10-16T11:37:58;18.88;68.41
66343;DHT22;53144;51.524;5.080;2022-10-16T11:40:29;18.73;69.17
66343;DHT22;53144;51.524;5.080;2022-10-16T11:43:26;19.53;68.24
66343;DHT22;53144;51.524;5.080;2022-10-16T11:45:59;20.30;66.49
66343;DHT22;53144;51.524;5.080;2022-10-16T11:51:40;21.05;62.03
66343;DHT22;53144;51.524;5.080;2022-10-16T11:54:29;22.14;59.53
66343;DHT22;53144;51.524;5.080;2022-10-16T11:57:00;22.51;60.62
66343;DHT22;53144;51.524;5.080;2022-10-16T11:59:35;20.95;60.27
66343;DHT22;53144;51.524;5.080;2022-10-16T12:02:22;21.59;59.88
66343;DHT22;53144;51.524;5.080;2022-10-16T12:04:53;22.00;58.86
66343;DHT22;53144;51.524;5.080;2022-10-16T12:07:27;21.88;59.56
66343;DHT22;53144;51.524;5.080;2022-10-16T12:09:57;21.25;59.84
66343;DHT22;53144;51.524;5.080;2022-10-16T12:15:27;20.25;63.39
66343;DHT22;53144;51.524;5.080;2022-10-16T12:17:52;19.58;64.54
66343;DHT22;53144;51.524;5.080;2022-10-16T12:20:24;19.50;65.05
66343;DHT22;53144;51.524;5.080;2022-10-16T12:23:00;19.47;65.80
66343;DHT22;53144;51.524;5.080;2022-10-16T12:25:31;19.51;64.99
66343;DHT22;53144;51.524;5.080;2022-10-16T12:27:59;19.85;64.71
66343;DHT22;53144;51.524;5.080;2022-10-16T12:30:26;20.53;62.67
66343;DHT22;53144;51.524;5.080;2022-10-16T12:32:58;21.05;60.06
66343;DHT22;53144;51.524;5.080;2022-10-16T12:35:28;20.26;60.06
66343;DHT22;53144;51.524;5.080;2022-10-16T12:38:05;20.08;62.16
66343;DHT22;53144;51.524;5.080;2022-10-16T12:40:33;20.95;60.75
66343;DHT22;53144;51.524;5.080;2022-10-16T12:42:59;20.83;59.78
66343;DHT22;53144;51.524;5.080;2022-10-16T12:45:35;20.55;61.47
66343;DHT22;53144;51.524;5.080;2022-10-16T12:48:03;20.36;63.10
66343;DHT22;53144;51.524;5.080;2022-10-16T12:50:37;19.85;63.98
66343;DHT22;53144;51.524;5.080;2022-10-16T12:53:18;19.92;64.67
66343;DHT22;53144;51.524;5.080;2022-10-16T12:55:53;20.65;61.50
66343;DHT22;53144;51.524;5.080;2022-10-16T12:58:28;21.53;60.91
66343;DHT22;53144;51.524;5.080;2022-10-16T13:01:23;22.25;57.19
66343;DHT22;53144;51.524;5.080;2022-10-16T13:03:54;22.54;56.91
66343;DHT22;53144;51.524;5.080;2022-10-16T13:06:33;22.79;55.53
66343;DHT22;53144;51.524;5.080;2022-10-16T13:09:22;21.72;58.54
66343;DHT22;53144;51.524;5.080;2022-10-16T13:20:26;21.17;60.33
66343;DHT22;53144;51.524;5.080;2022-10-16T13:23:17;21.08;61.62
66343;DHT22;53144;51.524;5.080;2022-10-16T13:26:01;22.43;56.91
66343;DHT22;53144;51.524;5.080;2022-10-16T13:28:33;22.71;55.95
66343;DHT22;53144;51.524;5.080;2022-10-16T13:31:00;22.64;55.08
66343;DHT22;53144;51.524;5.080;2022-10-16T13:35:56;22.88;56.24
66343;DHT22;53144;51.524;5.080;2022-10-16T13:38:27;22.23;55.82
66343;DHT22;53144;51.524;5.080;2022-10-16T13:40:53;21.88;57.91
66343;DHT22;53144;51.524;5.080;2022-10-16T13:43:22;20.16;60.88
66343;DHT22;53144;51.524;5.080;2022-10-16T13:46:00;20.60;61.16
66343;DHT22;53144;51.524;5.080;2022-10-16T13:48:27;20.73;60.59
66343;DHT22;53144;51.524;5.080;2022-10-16T13:53:31;21.00;60.93
66343;DHT22;53144;51.524;5.080;2022-10-16T13:55:56;20.91;60.32
66343;DHT22;53144;51.524;5.080;2022-10-16T13:58:22;20.73;61.93
66343;DHT22;53144;51.524;5.080;2022-10-16T14:01:03;20.42;62.57
66343;DHT22;53144;51.524;5.080;2022-10-16T14:03:31;20.11;65.29
66343;DHT22;53144;51.524;5.080;2022-10-16T14:06:02;19.99;64.79
66343;DHT22;53144;51.524;5.080;2022-10-16T14:08:29;19.75;65.60
66343;DHT22;53144;51.524;5.080;2022-10-16T14:11:00;19.49;67.01
66343;DHT22;53144;51.524;5.080;2022-10-16T14:13:37;19.23;66.70
66343;DHT22;53144;51.524;5.080;2022-10-16T14:16:11;19.29;67.13
66343;DHT22;53144;51.524;5.080;2022-10-16T14:18:40;19.19;66.98
66343;DHT22;53144;51.524;5.080;2022-10-16T14:21:11;19.08;66.29
66343;DHT22;53144;51.524;5.080;2022-10-16T14:23:39;18.95;67.99
66343;DHT22;53144;51.524;5.080;2022-10-16T14:28:38;18.85;68.59
66343;DHT22;53144;51.524;5.080;2022-10-16T14:33:44;18.68;70.66
66343;DHT22;53144;51.524;5.080;2022-10-16T14:36:13;18.71;70.21
66343;DHT22;53144;51.524;5.080;2022-10-16T14:38:43;18.76;70.63
66343;DHT22;53144;51.524;5.080;2022-10-16T14:41:09;18.76;70.32
66343;DHT22;53144;51.524;5.080;2022-10-16T14:43:40;18.81;70.41
66343;DHT22;53144;51.524;5.080;2022-10-16T14:46:13;18.82;70.82
66343;DHT22;53144;51.524;5.080;2022-10-16T14:48:43;18.65;71.10
66343;DHT22;53144;51.524;5.080;2022-10-16T14:51:14;18.58;71.73
66343;DHT22;53144;51.524;5.080;2022-10-16T14:53:40;18.55;71.61
66343;DHT22;53144;51.524;5.080;2022-10-16T14:56:07;18.51;72.43
66343;DHT22;53144;51.524;5.080;2022-10-16T14:58:34;18.51;71.43
66343;DHT22;53144;51.524;5.080;2022-10-16T15:01:00;18.43;72.05
66343;DHT22;53144;51.524;5.080;2022-10-16T15:03:25;18.41;73.27
66343;DHT22;53144;51.524;5.080;2022-10-16T15:05:50;18.31;74.61
66343;DHT22;53144;51.524;5.080;2022-10-16T15:08:16;18.27;73.53
66343;DHT22;53144;51.524;5.080;2022-10-16T15:10:43;18.26;73.47
66343;DHT22;53144;51.524;5.080;2022-10-16T15:13:12;18.24;73.19
66343;DHT22;53144;51.524;5.080;2022-10-16T15:15:41;18.16;75.26
66343;DHT22;53144;51.524;5.080;2022-10-16T15:18:07;18.09;75.18
66343;DHT22;53144;51.524;5.080;2022-10-16T15:20:34;18.03;75.77
66343;DHT22;53144;51.524;5.080;2022-10-16T15:23:13;17.79;77.51
66343;DHT22;53144;51.524;5.080;2022-10-16T15:25:44;17.63;79.28
66343;DHT22;53144;51.524;5.080;2022-10-16T15:28:11;17.55;81.63
66343;DHT22;53144;51.524;5.080;2022-10-16T15:30:37;17.55;79.75
66343;DHT22;53144;51.524;5.080;2022-10-16T15:33:04;17.53;80.48
66343;DHT22;53144;51.524;5.080;2022-10-16T15:35:30;17.48;79.13
66343;DHT22;53144;51.524;5.080;2022-10-16T15:37:56;17.46;77.75
66343;DHT22;53144;51.524;5.080;2022-10-16T15:40:22;17.28;81.02
66343;DHT22;53144;51.524;5.080;2022-10-16T15:42:48;17.24;81.94
66343;DHT22;53144;51.524;5.080;2022-10-16T15:45:14;17.21;79.93
66343;DHT22;53144;51.524;5.080;2022-10-16T15:47:40;17.04;82.86
66343;DHT22;53144;51.524;5.080;2022-10-16T15:50:06;16.97;83.48
66343;DHT22;53144;51.524;5.080;2022-10-16T15:52:33;16.80;84.94
66343;DHT22;53144;51.524;5.080;2022-10-16T15:54:59;16.74;84.40
66343;DHT22;53144;51.524;5.080;2022-10-16T15:57:25;16.70;85.01
66343;DHT22;53144;51.524;5.080;2022-10-16T15:59:52;16.67;84.79
66343;DHT22;53144;51.524;5.080;2022-10-16T16:02:18;16.70;82.94
66343;DHT22;53144;51.524;5.080;2022-10-16T16:04:43;16.69;83.74
66343;DHT22;53144;51.524;5.080;2022-10-16T16:07:08;16.74;82.06
66343;DHT22;53144;51.524;5.080;2022-10-16T16:09:34;16.73;82.14
66343;DHT22;53144;51.524;5.080;2022-10-16T16:11:59;16.72;82.49
66343;DHT22;53144;51.524;5.080;2022-10-16T16:14:27;16.67;82.97
66343;DHT22;53144;51.524;5.080;2022-10-16T16:16:56;16.64;82.25
66343;DHT22;53144;51.524;5.080;2022-10-16T16:19:22;16.46;84.43
66343;DHT22;53144;51.524;5.080;2022-10-16T16:21:48;16.24;86.03
66343;DHT22;53144;51.524;5.080;2022-10-16T16:24:14;16.11;86.91
66343;DHT22;53144;51.524;5.080;2022-10-16T16:26:40;16.15;85.82
66343;DHT22;53144;51.524;5.080;2022-10-16T16:29:11;16.18;85.90
66343;DHT22;53144;51.524;5.080;2022-10-16T16:31:37;16.01;86.93
66343;DHT22;53144;51.524;5.080;2022-10-16T16:34:03;15.88;88.03
66343;DHT22;53144;51.524;5.080;2022-10-16T16:36:29;15.77;88.29
66343;DHT22;53144;51.524;5.080;2022-10-16T16:38:54;15.71;87.51
66343;DHT22;53144;51.524;5.080;2022-10-16T16:41:24;15.73;88.39
66343;DHT22;53144;51.524;5.080;2022-10-16T16:43:51;15.74;87.66
66343;DHT22;53144;51.524;5.080;2022-10-16T16:46:16;15.70;87.86
66343;DHT22;53144;51.524;5.080;2022-10-16T16:48:42;15.64;88.21
66343;DHT22;53144;51.524;5.080;2022-10-16T16:51:10;15.73;87.67
66343;DHT22;53144;51.524;5.080;2022-10-16T16:53:40;15.74;87.66
66343;DHT22;53144;51.524;5.080;2022-10-16T16:56:06;15.67;87.44
66343;DHT22;53144;51.524;5.080;2022-10-16T16:58:31;15.63;87.94